sensor_id;sensor_type;location;lat;lon;timestamp;P1;durP1;ratioP1;P2;durP2;ratioP2
26062;SDS011;13837;48.562;12.108;2022-10-04T00:01:27;19.05;;;16.15;;
26062;SDS011;13837;48.562;12.108;2022-10-04T00:06:31;15.95;;;14.63;;
26062;SDS011;13837;48.562;12.108;2022-10-04T00:08:59;15.35;;;14.07;;
26062;SDS011;13837;48.562;12.108;2022-10-04T00:11:35;16.38;;;15.02;;
26062;SDS011;13837;48.562;12.108;2022-10-04T00:16:48;17.13;;;15.90;;
26062;SDS011;13837;48.562;12.108;2022-10-04T00:24:20;17.65;;;16.20;;
26062;SDS011;13837;48.562;12.108;2022-10-04T00:29:34;16.48;;;15.25;;
26062;SDS011;13837;48.562;12.108;2022-10-04T00:34:51;17.40;;;16.10;;
26062;SDS011;13837;48.562;12.108;2022-10-04T00:37:19;18.08;;;16.23;;
26062;SDS011;13837;48.562;12.108;2022-10-04T00:39:54;14.38;;;13.13;;
26062;SDS011;13837;48.562;12.108;2022-10-04T00:45:06;14.35;;;12.38;;
26062;SDS011;13837;48.562;12.108;2022-10-04T00:50:14;13.82;;;12.63;;
26062;SDS011;13837;48.562;12.108;2022-10-04T00:52:55;14.68;;;12.85;;
26062;SDS011;13837;48.562;12.108;2022-10-04T00:55:30;13.93;;;12.93;;
26062;SDS011;13837;48.562;12.108;2022-10-04T00:58:23;12.30;;;11.10;;
26062;SDS011;13837;48.562;12.108;2022-10-04T01:00:56;11.40;;;10.27;;
26062;SDS011;13837;48.562;12.108;2022-10-04T01:03:35;13.90;;;12.50;;
26062;SDS011;13837;48.562;12.108;2022-10-04T01:06:04;14.18;;;13.07;;
26062;SDS011;13837;48.562;12.108;2022-10-04T01:08:35;14.05;;;12.73;;
26062;SDS011;13837;48.562;12.108;2022-10-04T01:11:22;14.80;;;13.60;;
26062;SDS011;13837;48.562;12.108;2022-10-04T01:14:07;14.40;;;13.25;;
26062;SDS011;13837;48.562;12.108;2022-10-04T01:16:39;14.70;;;13.40;;
26062;SDS011;13837;48.562;12.108;2022-10-04T01:19:23;13.00;;;12.02;;
26062;SDS011;13837;48.562;12.108;2022-10-04T01:24:56;13.75;;;12.50;;
26062;SDS011;13837;48.562;12.108;2022-10-04T01:30:19;12.32;;;11.23;;
26062;SDS011;13837;48.562;12.108;2022-10-04T01:32:45;15.15;;;11.85;;
26062;SDS011;13837;48.562;12.108;2022-10-04T01:35:11;14.43;;;13.40;;
26062;SDS011;13837;48.562;12.108;2022-10-04T01:37:39;12.98;;;11.77;;
26062;SDS011;13837;48.562;12.108;2022-10-04T01:40:08;13.90;;;12.57;;
26062;SDS011;13837;48.562;12.108;2022-10-04T01:42:37;14.77;;;13.63;;
26062;SDS011;13837;48.562;12.108;2022-10-04T01:47:45;15.55;;;14.25;;
26062;SDS011;13837;48.562;12.108;2022-10-04T01:50:24;14.10;;;13.02;;
26062;SDS011;13837;48.562;12.108;2022-10-04T01:53:00;14.43;;;13.13;;
26062;SDS011;13837;48.562;12.108;2022-10-04T01:55:35;15.38;;;14.07;;
26062;SDS011;13837;48.562;12.108;2022-10-04T02:00:45;14.20;;;12.93;;
26062;SDS011;13837;48.562;12.108;2022-10-04T02:03:33;16.08;;;14.88;;
26062;SDS011;13837;48.562;12.108;2022-10-04T02:06:03;15.05;;;13.88;;
26062;SDS011;13837;48.562;12.108;2022-10-04T02:08:32;16.40;;;15.23;;
26062;SDS011;13837;48.562;12.108;2022-10-04T02:11:02;17.65;;;16.25;;
26062;SDS011;13837;48.562;12.108;2022-10-04T02:13:32;15.43;;;14.30;;
26062;SDS011;13837;48.562;12.108;2022-10-04T02:16:01;14.00;;;12.93;;
26062;SDS011;13837;48.562;12.108;2022-10-04T02:18:28;16.90;;;15.13;;
26062;SDS011;13837;48.562;12.108;2022-10-04T02:20:55;16.30;;;15.10;;
26062;SDS011;13837;48.562;12.108;2022-10-04T02:23:22;16.60;;;15.50;;
26062;SDS011;13837;48.562;12.108;2022-10-04T02:25:49;16.75;;;15.43;;
26062;SDS011;13837;48.562;12.108;2022-10-04T02:28:16;17.98;;;16.33;;
26062;SDS011;13837;48.562;12.108;2022-10-04T02:30:43;19.80;;;17.58;;
26062;SDS011;13837;48.562;12.108;2022-10-04T02:33:32;18.10;;;16.55;;
26062;SDS011;13837;48.562;12.108;2022-10-04T02:36:02;16.90;;;15.73;;
26062;SDS011;13837;48.562;12.108;2022-10-04T02:38:32;16.80;;;15.70;;
26062;SDS011;13837;48.562;12.108;2022-10-04T02:43:31;16.73;;;15.52;;
26062;SDS011;13837;48.562;12.108;2022-10-04T02:46:20;16.95;;;15.63;;
26062;SDS011;13837;48.562;12.108;2022-10-04T02:49:05;16.77;;;15.43;;
26062;SDS011;13837;48.562;12.108;2022-10-04T02:54:23;16.67;;;15.48;;
26062;SDS011;13837;48.562;12.108;2022-10-04T02:56:58;18.05;;;16.67;;
26062;SDS011;13837;48.562;12.108;2022-10-04T02:59:25;17.65;;;16.38;;
26062;SDS011;13837;48.562;12.108;2022-10-04T03:01:55;17.23;;;15.95;;
26062;SDS011;13837;48.562;12.108;2022-10-04T03:04:23;17.57;;;16.27;;
26062;SDS011;13837;48.562;12.108;2022-10-04T03:06:55;17.55;;;16.27;;
26062;SDS011;13837;48.562;12.108;2022-10-04T03:09:23;16.60;;;15.40;;
26062;SDS011;13837;48.562;12.108;2022-10-04T03:11:50;17.80;;;16.10;;
26062;SDS011;13837;48.562;12.108;2022-10-04T03:14:20;17.33;;;16.13;;
26062;SDS011;13837;48.562;12.108;2022-10-04T03:16:52;17.33;;;16.23;;
26062;SDS011;13837;48.562;12.108;2022-10-04T03:19:24;17.70;;;16.50;;
26062;SDS011;13837;48.562;12.108;2022-10-04T03:21:53;18.05;;;16.70;;
26062;SDS011;13837;48.562;12.108;2022-10-04T03:24:22;18.00;;;16.80;;
26062;SDS011;13837;48.562;12.108;2022-10-04T03:26:53;17.77;;;16.45;;
26062;SDS011;13837;48.562;12.108;2022-10-04T03:29:21;17.30;;;15.90;;
26062;SDS011;13837;48.562;12.108;2022-10-04T03:31:51;17.55;;;16.10;;
26062;SDS011;13837;48.562;12.108;2022-10-04T03:34:45;17.02;;;15.95;;
26062;SDS011;13837;48.562;12.108;2022-10-04T03:37:15;19.08;;;17.77;;
26062;SDS011;13837;48.562;12.108;2022-10-04T03:39:45;19.33;;;17.92;;
26062;SDS011;13837;48.562;12.108;2022-10-04T03:42:29;18.63;;;17.40;;
26062;SDS011;13837;48.562;12.108;2022-10-04T03:44:59;19.20;;;17.77;;
26062;SDS011;13837;48.562;12.108;2022-10-04T03:47:28;17.88;;;16.42;;
26062;SDS011;13837;48.562;12.108;2022-10-04T03:49:57;17.17;;;16.02;;
26062;SDS011;13837;48.562;12.108;2022-10-04T03:52:33;17.83;;;16.60;;
26062;SDS011;13837;48.562;12.108;2022-10-04T03:55:02;18.00;;;15.98;;
26062;SDS011;13837;48.562;12.108;2022-10-04T03:57:30;17.15;;;15.80;;
26062;SDS011;13837;48.562;12.108;2022-10-04T03:59:57;17.80;;;16.17;;
26062;SDS011;13837;48.562;12.108;2022-10-04T04:07:28;24.27;;;22.83;;
26062;SDS011;13837;48.562;12.108;2022-10-04T04:10:04;18.45;;;17.25;;
26062;SDS011;13837;48.562;12.108;2022-10-04T04:12:43;19.75;;;18.35;;
26062;SDS011;13837;48.562;12.108;2022-10-04T04:15:16;19.63;;;18.17;;
26062;SDS011;13837;48.562;12.108;2022-10-04T04:17:45;19.83;;;18.23;;
26062;SDS011;13837;48.562;12.108;2022-10-04T04:25:40;19.10;;;17.90;;
26062;SDS011;13837;48.562;12.108;2022-10-04T04:31:15;18.95;;;17.55;;
26062;SDS011;13837;48.562;12.108;2022-10-04T04:33:58;19.17;;;17.85;;
26062;SDS011;13837;48.562;12.108;2022-10-04T04:36:27;19.38;;;17.52;;
26062;SDS011;13837;48.562;12.108;2022-10-04T04:39:04;18.33;;;17.05;;
26062;SDS011;13837;48.562;12.108;2022-10-04T04:41:56;19.02;;;17.70;;
26062;SDS011;13837;48.562;12.108;2022-10-04T04:44:22;18.45;;;17.10;;
26062;SDS011;13837;48.562;12.108;2022-10-04T04:46:48;18.52;;;17.33;;
26062;SDS011;13837;48.562;12.108;2022-10-04T04:49:15;19.42;;;17.83;;
26062;SDS011;13837;48.562;12.108;2022-10-04T04:51:47;20.48;;;18.83;;
26062;SDS011;13837;48.562;12.108;2022-10-04T04:54:16;24.02;;;21.95;;
26062;SDS011;13837;48.562;12.108;2022-10-04T04:56:46;22.48;;;20.88;;
26062;SDS011;13837;48.562;12.108;2022-10-04T04:59:15;20.90;;;19.35;;
26062;SDS011;13837;48.562;12.108;2022-10-04T05:01:42;19.17;;;17.98;;
26062;SDS011;13837;48.562;12.108;2022-10-04T05:06:38;21.67;;;20.00;;
26062;SDS011;13837;48.562;12.108;2022-10-04T05:09:13;27.10;;;24.27;;
26062;SDS011;13837;48.562;12.108;2022-10-04T05:11:56;28.58;;;24.88;;
26062;SDS011;13837;48.562;12.108;2022-10-04T05:14:32;27.80;;;24.80;;
26062;SDS011;13837;48.562;12.108;2022-10-04T05:17:02;25.65;;;23.35;;
26062;SDS011;13837;48.562;12.108;2022-10-04T05:19:30;25.30;;;23.00;;
26062;SDS011;13837;48.562;12.108;2022-10-04T05:22:02;23.75;;;21.88;;
26062;SDS011;13837;48.562;12.108;2022-10-04T05:24:37;23.83;;;22.02;;
26062;SDS011;13837;48.562;12.108;2022-10-04T05:35:16;22.10;;;20.33;;
26062;SDS011;13837;48.562;12.108;2022-10-04T05:37:49;22.00;;;20.38;;
26062;SDS011;13837;48.562;12.108;2022-10-04T05:43:17;23.05;;;21.23;;
26062;SDS011;13837;48.562;12.108;2022-10-04T05:48:36;24.23;;;22.42;;
26062;SDS011;13837;48.562;12.108;2022-10-04T05:51:11;23.02;;;21.35;;
26062;SDS011;13837;48.562;12.108;2022-10-04T05:53:44;22.75;;;20.88;;
26062;SDS011;13837;48.562;12.108;2022-10-04T05:56:18;25.23;;;23.27;;
26062;SDS011;13837;48.562;12.108;2022-10-04T06:01:47;23.63;;;21.45;;
26062;SDS011;13837;48.562;12.108;2022-10-04T06:12:55;20.85;;;19.33;;
26062;SDS011;13837;48.562;12.108;2022-10-04T06:23:53;20.30;;;18.73;;
26062;SDS011;13837;48.562;12.108;2022-10-04T06:26:38;21.50;;;19.35;;
26062;SDS011;13837;48.562;12.108;2022-10-04T06:29:19;27.00;;;24.52;;
26062;SDS011;13837;48.562;12.108;2022-10-04T06:32:03;28.15;;;25.27;;
26062;SDS011;13837;48.562;12.108;2022-10-04T06:34:52;27.65;;;24.92;;
26062;SDS011;13837;48.562;12.108;2022-10-04T06:43:35;24.73;;;22.52;;
26062;SDS011;13837;48.562;12.108;2022-10-04T06:48:59;25.17;;;22.83;;
26062;SDS011;13837;48.562;12.108;2022-10-04T06:52:04;26.30;;;23.85;;
26062;SDS011;13837;48.562;12.108;2022-10-04T07:00:25;21.60;;;19.83;;
26062;SDS011;13837;48.562;12.108;2022-10-04T07:05:37;19.10;;;17.60;;
26062;SDS011;13837;48.562;12.108;2022-10-04T07:08:11;19.92;;;18.27;;
26062;SDS011;13837;48.562;12.108;2022-10-04T07:11:14;20.60;;;18.90;;
26062;SDS011;13837;48.562;12.108;2022-10-04T07:13:58;18.00;;;16.70;;
26062;SDS011;13837;48.562;12.108;2022-10-04T07:16:47;17.23;;;16.02;;
26062;SDS011;13837;48.562;12.108;2022-10-04T07:22:02;15.68;;;14.27;;
26062;SDS011;13837;48.562;12.108;2022-10-04T07:24:50;15.65;;;14.35;;
26062;SDS011;13837;48.562;12.108;2022-10-04T07:27:25;15.45;;;14.32;;
26062;SDS011;13837;48.562;12.108;2022-10-04T07:29:55;16.35;;;14.80;;
26062;SDS011;13837;48.562;12.108;2022-10-04T07:32:27;19.02;;;17.20;;
26062;SDS011;13837;48.562;12.108;2022-10-04T07:37:28;18.20;;;16.55;;
26062;SDS011;13837;48.562;12.108;2022-10-04T07:40:18;16.30;;;15.00;;
26062;SDS011;13837;48.562;12.108;2022-10-04T07:42:52;16.20;;;15.00;;
26062;SDS011;13837;48.562;12.108;2022-10-04T07:45:37;15.88;;;14.43;;
26062;SDS011;13837;48.562;12.108;2022-10-04T07:50:40;17.90;;;16.10;;
26062;SDS011;13837;48.562;12.108;2022-10-04T07:53:13;18.27;;;16.48;;
26062;SDS011;13837;48.562;12.108;2022-10-04T08:01:06;19.48;;;17.75;;
26062;SDS011;13837;48.562;12.108;2022-10-04T08:03:54;18.70;;;17.10;;
26062;SDS011;13837;48.562;12.108;2022-10-04T08:06:35;20.27;;;18.17;;
26062;SDS011;13837;48.562;12.108;2022-10-04T08:11:53;19.23;;;17.60;;
26062;SDS011;13837;48.562;12.108;2022-10-04T08:15:14;17.13;;;15.43;;
26062;SDS011;13837;48.562;12.108;2022-10-04T08:28:14;15.25;;;13.30;;
26062;SDS011;13837;48.562;12.108;2022-10-04T08:31:21;15.32;;;13.05;;
26062;SDS011;13837;48.562;12.108;2022-10-04T08:34:16;13.18;;;11.90;;
26062;SDS011;13837;48.562;12.108;2022-10-04T08:44:54;13.00;;;11.80;;
26062;SDS011;13837;48.562;12.108;2022-10-04T08:50:43;13.23;;;11.77;;
26062;SDS011;13837;48.562;12.108;2022-10-04T08:53:40;12.52;;;11.52;;
26062;SDS011;13837;48.562;12.108;2022-10-04T08:56:56;12.75;;;11.52;;
26062;SDS011;13837;48.562;12.108;2022-10-04T09:16:04;12.68;;;11.38;;
26062;SDS011;13837;48.562;12.108;2022-10-04T09:51:29;9.30;;;8.40;;
26062;SDS011;13837;48.562;12.108;2022-10-04T09:57:13;10.35;;;8.40;;
26062;SDS011;13837;48.562;12.108;2022-10-04T10:02:45;13.52;;;7.80;;
26062;SDS011;13837;48.562;12.108;2022-10-04T10:20:17;6.22;;;4.20;;
26062;SDS011;13837;48.562;12.108;2022-10-04T10:23:10;5.55;;;4.80;;
26062;SDS011;13837;48.562;12.108;2022-10-04T10:25:51;9.70;;;5.20;;
26062;SDS011;13837;48.562;12.108;2022-10-04T10:39:41;6.45;;;4.75;;
26062;SDS011;13837;48.562;12.108;2022-10-04T10:58:50;5.20;;;3.38;;
26062;SDS011;13837;48.562;12.108;2022-10-04T11:04:29;4.13;;;3.30;;
26062;SDS011;13837;48.562;12.108;2022-10-04T11:48:45;3.58;;;2.60;;
26062;SDS011;13837;48.562;12.108;2022-10-04T11:56:57;2.97;;;1.63;;
26062;SDS011;13837;48.562;12.108;2022-10-04T12:00:07;1.67;;;1.58;;
26062;SDS011;13837;48.562;12.108;2022-10-04T12:05:42;3.55;;;1.70;;
26062;SDS011;13837;48.562;12.108;2022-10-04T12:08:37;2.92;;;1.70;;
26062;SDS011;13837;48.562;12.108;2022-10-04T12:14:25;4.45;;;1.50;;
26062;SDS011;13837;48.562;12.108;2022-10-04T12:27:57;2.70;;;1.60;;
26062;SDS011;13837;48.562;12.108;2022-10-04T12:33:57;2.63;;;1.50;;
26062;SDS011;13837;48.562;12.108;2022-10-04T12:36:48;2.25;;;1.75;;
26062;SDS011;13837;48.562;12.108;2022-10-04T12:44:45;2.40;;;1.70;;
26062;SDS011;13837;48.562;12.108;2022-10-04T12:52:38;2.38;;;1.40;;
26062;SDS011;13837;48.562;12.108;2022-10-04T13:14:48;2.90;;;1.80;;
26062;SDS011;13837;48.562;12.108;2022-10-04T13:17:42;3.47;;;1.73;;
26062;SDS011;13837;48.562;12.108;2022-10-04T13:28:51;2.42;;;1.70;;
26062;SDS011;13837;48.562;12.108;2022-10-04T13:45:26;2.42;;;1.73;;
26062;SDS011;13837;48.562;12.108;2022-10-04T13:48:22;2.15;;;1.70;;
26062;SDS011;13837;48.562;12.108;2022-10-04T14:00:13;3.13;;;2.08;;
26062;SDS011;13837;48.562;12.108;2022-10-04T14:11:37;3.08;;;1.73;;
26062;SDS011;13837;48.562;12.108;2022-10-04T14:49:26;2.22;;;1.92;;
26062;SDS011;13837;48.562;12.108;2022-10-04T15:01:01;5.88;;;2.40;;
26062;SDS011;13837;48.562;12.108;2022-10-04T15:03:59;4.50;;;1.70;;
26062;SDS011;13837;48.562;12.108;2022-10-04T15:06:39;4.03;;;2.40;;
26062;SDS011;13837;48.562;12.108;2022-10-04T15:15:03;2.38;;;2.03;;
26062;SDS011;13837;48.562;12.108;2022-10-04T15:20:19;2.65;;;1.70;;
26062;SDS011;13837;48.562;12.108;2022-10-04T15:22:56;6.05;;;1.98;;
26062;SDS011;13837;48.562;12.108;2022-10-04T15:25:53;3.67;;;2.30;;
26062;SDS011;13837;48.562;12.108;2022-10-04T15:33:57;10.05;;;4.85;;
26062;SDS011;13837;48.562;12.108;2022-10-04T15:39:07;3.92;;;2.95;;
26062;SDS011;13837;48.562;12.108;2022-10-04T15:42:01;7.43;;;3.78;;
26062;SDS011;13837;48.562;12.108;2022-10-04T15:56:18;8.88;;;4.00;;
26062;SDS011;13837;48.562;12.108;2022-10-04T16:05:10;6.00;;;3.20;;
26062;SDS011;13837;48.562;12.108;2022-10-04T16:10:46;7.57;;;6.40;;
26062;SDS011;13837;48.562;12.108;2022-10-04T16:13:29;13.32;;;8.32;;
26062;SDS011;13837;48.562;12.108;2022-10-04T16:18:57;5.43;;;4.90;;
26062;SDS011;13837;48.562;12.108;2022-10-04T16:32:21;9.40;;;6.85;;
26062;SDS011;13837;48.562;12.108;2022-10-04T16:34:57;11.77;;;7.40;;
26062;SDS011;13837;48.562;12.108;2022-10-04T17:10:30;9.25;;;8.10;;
26062;SDS011;13837;48.562;12.108;2022-10-04T17:13:21;17.35;;;11.63;;
26062;SDS011;13837;48.562;12.108;2022-10-04T17:30:21;9.27;;;8.40;;
26062;SDS011;13837;48.562;12.108;2022-10-04T17:33:13;9.52;;;8.60;;
26062;SDS011;13837;48.562;12.108;2022-10-04T17:38:32;12.35;;;8.65;;
26062;SDS011;13837;48.562;12.108;2022-10-04T17:44:05;12.30;;;11.32;;
26062;SDS011;13837;48.562;12.108;2022-10-04T17:47:16;10.90;;;9.98;;
26062;SDS011;13837;48.562;12.108;2022-10-04T17:50:23;11.18;;;9.50;;
26062;SDS011;13837;48.562;12.108;2022-10-04T17:53:17;10.45;;;9.40;;
26062;SDS011;13837;48.562;12.108;2022-10-04T17:56:06;12.02;;;10.90;;
26062;SDS011;13837;48.562;12.108;2022-10-04T17:58:37;14.30;;;13.10;;
26062;SDS011;13837;48.562;12.108;2022-10-04T18:01:29;14.60;;;13.27;;
26062;SDS011;13837;48.562;12.108;2022-10-04T18:06:48;15.68;;;14.15;;
26062;SDS011;13837;48.562;12.108;2022-10-04T18:17:43;20.00;;;17.67;;
26062;SDS011;13837;48.562;12.108;2022-10-04T18:23:02;23.17;;;20.08;;
26062;SDS011;13837;48.562;12.108;2022-10-04T18:25:49;23.00;;;20.00;;
26062;SDS011;13837;48.562;12.108;2022-10-04T18:28:20;24.80;;;19.77;;
26062;SDS011;13837;48.562;12.108;2022-10-04T18:33:22;27.55;;;20.58;;
26062;SDS011;13837;48.562;12.108;2022-10-04T18:38:32;17.20;;;15.60;;
26062;SDS011;13837;48.562;12.108;2022-10-04T18:41:02;17.20;;;14.93;;
26062;SDS011;13837;48.562;12.108;2022-10-04T18:46:22;15.77;;;14.20;;
26062;SDS011;13837;48.562;12.108;2022-10-04T18:58:04;15.88;;;14.48;;
26062;SDS011;13837;48.562;12.108;2022-10-04T19:01:15;18.02;;;16.30;;
26062;SDS011;13837;48.562;12.108;2022-10-04T19:12:31;20.10;;;17.13;;
26062;SDS011;13837;48.562;12.108;2022-10-04T19:18:13;20.80;;;15.63;;
26062;SDS011;13837;48.562;12.108;2022-10-04T19:21:11;22.00;;;19.30;;
26062;SDS011;13837;48.562;12.108;2022-10-04T19:24:08;21.20;;;17.58;;
26062;SDS011;13837;48.562;12.108;2022-10-04T19:26:43;23.75;;;18.75;;
26062;SDS011;13837;48.562;12.108;2022-10-04T19:32:03;24.92;;;18.77;;
26062;SDS011;13837;48.562;12.108;2022-10-04T19:37:30;21.35;;;19.13;;
26062;SDS011;13837;48.562;12.108;2022-10-04T19:40:22;19.27;;;16.65;;
26062;SDS011;13837;48.562;12.108;2022-10-04T19:48:48;19.55;;;17.55;;
26062;SDS011;13837;48.562;12.108;2022-10-04T19:51:21;21.25;;;17.23;;
26062;SDS011;13837;48.562;12.108;2022-10-04T19:53:49;20.48;;;18.30;;
26062;SDS011;13837;48.562;12.108;2022-10-04T19:56:22;21.25;;;19.02;;
26062;SDS011;13837;48.562;12.108;2022-10-04T20:01:34;22.02;;;19.80;;
26062;SDS011;13837;48.562;12.108;2022-10-04T20:04:00;22.23;;;19.60;;
26062;SDS011;13837;48.562;12.108;2022-10-04T20:06:53;28.02;;;20.17;;
26062;SDS011;13837;48.562;12.108;2022-10-04T20:11:56;22.35;;;19.98;;
26062;SDS011;13837;48.562;12.108;2022-10-04T20:21:53;19.20;;;17.15;;
26062;SDS011;13837;48.562;12.108;2022-10-04T20:34:51;21.85;;;19.92;;
26062;SDS011;13837;48.562;12.108;2022-10-04T20:37:18;20.73;;;18.90;;
26062;SDS011;13837;48.562;12.108;2022-10-04T20:45:00;19.67;;;17.83;;
26062;SDS011;13837;48.562;12.108;2022-10-04T20:52:34;18.52;;;16.73;;
26062;SDS011;13837;48.562;12.108;2022-10-04T20:55:00;22.10;;;16.10;;
26062;SDS011;13837;48.562;12.108;2022-10-04T20:57:29;18.65;;;17.25;;
26062;SDS011;13837;48.562;12.108;2022-10-04T20:59:55;19.00;;;17.40;;
26062;SDS011;13837;48.562;12.108;2022-10-04T21:02:23;21.08;;;16.60;;
26062;SDS011;13837;48.562;12.108;2022-10-04T21:04:51;18.38;;;16.70;;
26062;SDS011;13837;48.562;12.108;2022-10-04T21:07:24;18.67;;;16.90;;
26062;SDS011;13837;48.562;12.108;2022-10-04T21:09:51;19.60;;;17.45;;
26062;SDS011;13837;48.562;12.108;2022-10-04T21:12:28;20.50;;;18.65;;
26062;SDS011;13837;48.562;12.108;2022-10-04T21:19:55;18.70;;;17.10;;
26062;SDS011;13837;48.562;12.108;2022-10-04T21:29:54;18.23;;;16.30;;
26062;SDS011;13837;48.562;12.108;2022-10-04T21:32:21;18.20;;;16.42;;
26062;SDS011;13837;48.562;12.108;2022-10-04T21:34:48;16.92;;;15.52;;
26062;SDS011;13837;48.562;12.108;2022-10-04T21:37:14;17.38;;;15.63;;
26062;SDS011;13837;48.562;12.108;2022-10-04T21:39:40;17.80;;;16.10;;
26062;SDS011;13837;48.562;12.108;2022-10-04T21:42:06;17.23;;;15.60;;
26062;SDS011;13837;48.562;12.108;2022-10-04T21:44:32;16.63;;;15.15;;
26062;SDS011;13837;48.562;12.108;2022-10-04T21:46:58;17.05;;;15.45;;
26062;SDS011;13837;48.562;12.108;2022-10-04T21:49:23;16.25;;;14.88;;
26062;SDS011;13837;48.562;12.108;2022-10-04T21:51:49;16.77;;;15.27;;
26062;SDS011;13837;48.562;12.108;2022-10-04T21:54:15;17.88;;;16.38;;
26062;SDS011;13837;48.562;12.108;2022-10-04T21:56:41;17.73;;;16.23;;
26062;SDS011;13837;48.562;12.108;2022-10-04T21:59:06;18.02;;;16.23;;
26062;SDS011;13837;48.562;12.108;2022-10-04T22:01:32;18.30;;;16.75;;
26062;SDS011;13837;48.562;12.108;2022-10-04T22:03:58;17.05;;;15.60;;
26062;SDS011;13837;48.562;12.108;2022-10-04T22:06:24;18.33;;;16.83;;
26062;SDS011;13837;48.562;12.108;2022-10-04T22:08:50;18.60;;;16.85;;
26062;SDS011;13837;48.562;12.108;2022-10-04T22:11:15;18.38;;;16.98;;
26062;SDS011;13837;48.562;12.108;2022-10-04T22:13:41;18.33;;;16.63;;
26062;SDS011;13837;48.562;12.108;2022-10-04T22:16:08;19.10;;;17.25;;
26062;SDS011;13837;48.562;12.108;2022-10-04T22:18:34;18.65;;;16.98;;
26062;SDS011;13837;48.562;12.108;2022-10-04T22:21:00;19.30;;;17.80;;
26062;SDS011;13837;48.562;12.108;2022-10-04T22:23:27;20.55;;;18.60;;
26062;SDS011;13837;48.562;12.108;2022-10-04T22:25:57;18.98;;;17.30;;
26062;SDS011;13837;48.562;12.108;2022-10-04T22:30:50;20.52;;;18.48;;
26062;SDS011;13837;48.562;12.108;2022-10-04T22:33:26;19.05;;;17.42;;
26062;SDS011;13837;48.562;12.108;2022-10-04T22:36:04;19.35;;;17.45;;
26062;SDS011;13837;48.562;12.108;2022-10-04T22:38:37;19.17;;;17.52;;
26062;SDS011;13837;48.562;12.108;2022-10-04T22:41:10;20.10;;;18.00;;
26062;SDS011;13837;48.562;12.108;2022-10-04T22:43:37;20.27;;;18.30;;
26062;SDS011;13837;48.562;12.108;2022-10-04T22:46:02;19.92;;;17.90;;
26062;SDS011;13837;48.562;12.108;2022-10-04T22:48:28;19.25;;;17.65;;
26062;SDS011;13837;48.562;12.108;2022-10-04T22:50:55;19.20;;;17.80;;
26062;SDS011;13837;48.562;12.108;2022-10-04T22:53:21;20.77;;;19.08;;
26062;SDS011;13837;48.562;12.108;2022-10-04T22:55:48;21.35;;;19.17;;
26062;SDS011;13837;48.562;12.108;2022-10-04T22:58:15;20.92;;;18.92;;
26062;SDS011;13837;48.562;12.108;2022-10-04T23:00:42;20.75;;;18.52;;
26062;SDS011;13837;48.562;12.108;2022-10-04T23:03:23;19.85;;;18.30;;
26062;SDS011;13837;48.562;12.108;2022-10-04T23:05:53;19.42;;;17.55;;
26062;SDS011;13837;48.562;12.108;2022-10-04T23:08:19;18.38;;;16.77;;
26062;SDS011;13837;48.562;12.108;2022-10-04T23:10:44;18.23;;;16.38;;
26062;SDS011;13837;48.562;12.108;2022-10-04T23:13:10;19.00;;;17.35;;
26062;SDS011;13837;48.562;12.108;2022-10-04T23:15:36;18.83;;;16.88;;
26062;SDS011;13837;48.562;12.108;2022-10-04T23:18:04;18.80;;;16.80;;
26062;SDS011;13837;48.562;12.108;2022-10-04T23:20:38;18.73;;;17.23;;
26062;SDS011;13837;48.562;12.108;2022-10-04T23:23:04;19.50;;;17.50;;
26062;SDS011;13837;48.562;12.108;2022-10-04T23:25:35;18.73;;;17.17;;
26062;SDS011;13837;48.562;12.108;2022-10-04T23:28:10;19.13;;;17.50;;
26062;SDS011;13837;48.562;12.108;2022-10-04T23:30:38;20.77;;;18.58;;
26062;SDS011;13837;48.562;12.108;2022-10-04T23:33:20;18.50;;;16.80;;
26062;SDS011;13837;48.562;12.108;2022-10-04T23:35:46;20.55;;;17.55;;
26062;SDS011;13837;48.562;12.108;2022-10-04T23:38:13;18.73;;;17.23;;
26062;SDS011;13837;48.562;12.108;2022-10-04T23:40:41;19.88;;;17.83;;
26062;SDS011;13837;48.562;12.108;2022-10-04T23:43:14;18.92;;;17.10;;
26062;SDS011;13837;48.562;12.108;2022-10-04T23:45:43;19.05;;;17.33;;
26062;SDS011;13837;48.562;12.108;2022-10-04T23:48:10;19.00;;;17.40;;
26062;SDS011;13837;48.562;12.108;2022-10-04T23:50:41;19.92;;;17.95;;
26062;SDS011;13837;48.562;12.108;2022-10-04T23:53:11;19.88;;;18.35;;
26062;SDS011;13837;48.562;12.108;2022-10-04T23:55:51;20.25;;;18.65;;
26062;SDS011;13837;48.562;12.108;2022-10-04T23:58:19;20.08;;;17.85;;
